EPWR

 

Copernicus Wrocław Airport

Wrocław, Poland

EPWR 241100Z 29008KT 4500 -SG BR BKN006 OVC008 M03/M05 Q1027 R11/490094